createdAt,value
2019-01-15T15:03:52.310Z,99677.27
2019-01-15T15:09:15.102Z,99703.87
2019-01-15T15:14:56.458Z,99716.91
2019-01-15T15:20:31.796Z,99745.27
2019-01-15T15:25:42.389Z,99715.35
2019-01-15T15:31:04.546Z,99715.59
2019-01-15T15:36:27.551Z,99721.37
2019-01-15T15:42:07.160Z,99736.27
2019-01-15T15:47:42.249Z,99743.23
2019-01-15T15:53:12.335Z,99710.86
2019-01-15T15:58:40.690Z,99715.22
2019-01-15T16:04:23.027Z,99724.78
2019-01-15T16:09:49.321Z,99706.18
2019-01-15T16:15:21.485Z,99721.98
2019-01-15T16:21:02.834Z,99717.59
2019-01-15T16:26:16.540Z,99726.76
2019-01-15T16:31:45.967Z,99715.49
2019-01-15T16:37:15.040Z,99697.03
2019-01-15T16:42:38.894Z,99701.84
2019-01-15T16:47:51.806Z,99697.53
2019-01-15T16:53:13.592Z,99697.02
2019-01-15T16:58:35.290Z,99706.42
2019-01-15T17:04:07.311Z,99701.92
2019-01-15T17:09:29.417Z,99689.80
2019-01-15T17:14:51.307Z,99717.69
2019-01-15T17:20:15.622Z,99703.00
2019-01-15T17:25:43.644Z,99703.00
2019-01-15T17:30:59.082Z,99713.13
2019-01-15T17:36:31.066Z,99713.47
2019-01-15T17:41:57.615Z,99714.83
2019-01-15T17:47:18.960Z,99702.17
2019-01-15T17:52:43.661Z,99700.38
2019-01-15T17:58:02.798Z,99704.18
2019-01-15T18:03:17.617Z,99710.13
2019-01-15T18:08:39.400Z,99701.34
2019-01-15T18:14:14.492Z,99743.22
2019-01-15T18:19:37.405Z,99705.03
2019-01-15T18:25:12.673Z,99709.13
2019-01-15T18:30:35.464Z,99710.76
2019-01-15T18:36:06.767Z,99707.28
2019-01-15T18:41:29.950Z,99709.56
2019-01-15T18:46:44.336Z,99701.58
2019-01-15T18:52:10.876Z,99695.61
2019-01-15T18:57:28.433Z,99698.91
2019-01-15T19:02:54.643Z,99691.29
2019-01-15T19:08:08.741Z,99686.08
2019-01-15T19:13:38.058Z,99704.55
2019-01-15T19:18:59.744Z,99693.52
2019-01-15T19:24:14.200Z,99700.34
2019-01-15T19:29:29.411Z,99694.52
2019-01-15T19:35:03.115Z,99691.30
2019-01-15T19:40:31.907Z,99693.09
2019-01-15T19:45:53.303Z,99704.67
2019-01-15T19:51:19.540Z,99716.95
2019-01-15T19:57:30.496Z,99710.17
2019-01-15T20:02:59.804Z,99719.63
2019-01-15T20:08:31.615Z,99728.98
2019-01-15T20:13:57.688Z,99720.52
2019-01-15T20:19:14.851Z,99720.52
2019-01-15T20:24:36.671Z,99716.04
2019-01-15T20:30:02.051Z,99719.11
2019-01-15T20:35:18.652Z,99746.85
2019-01-15T20:40:56.960Z,99725.85
2019-01-15T20:46:18.695Z,99720.38
2019-01-15T20:51:38.069Z,99729.34
2019-01-15T20:57:03.951Z,99742.95
2019-01-15T21:02:25.897Z,99733.22
2019-01-15T21:07:44.867Z,99726.70
2019-01-15T21:13:17.346Z,99744.95
2019-01-15T21:18:33.187Z,99728.81
2019-01-15T21:23:54.710Z,99726.47
2019-01-15T21:29:29.782Z,99760.52
2019-01-15T21:34:48.164Z,99728.53
2019-01-15T21:40:13.926Z,99742.99
2019-01-15T21:45:30.297Z,99739.72
2019-01-15T21:50:53.089Z,99758.20
2019-01-15T21:56:22.251Z,99745.92
2019-01-15T22:02:00.306Z,99736.84
2019-01-15T22:07:15.058Z,99731.56
2019-01-15T22:12:36.955Z,99757.44
2019-01-15T22:17:58.474Z,99737.35
2019-01-15T22:23:33.724Z,99735.36
2019-01-15T22:28:58.120Z,99730.64
2019-01-15T22:34:22.074Z,99734.05
2019-01-15T22:39:43.871Z,99725.69
2019-01-15T22:45:07.103Z,99720.73
2019-01-15T22:50:29.157Z,99733.97
2019-01-15T22:55:46.723Z,99727.08
2019-01-15T23:01:15.867Z,99721.52
2019-01-15T23:06:44.543Z,99718.73
2019-01-15T23:12:09.843Z,99717.02
2019-01-15T23:17:35.819Z,99729.17
2019-01-15T23:22:50.220Z,99723.81
2019-01-15T23:28:05.724Z,99721.78
2019-01-15T23:33:26.896Z,99723.13
2019-01-15T23:38:54.131Z,99712.02
2019-01-15T23:44:23.369Z,99702.16
2019-01-15T23:49:49.213Z,99719.07
2019-01-15T23:55:05.494Z,99738.70
